sensor_id;sensor_type;location;lat;lon;timestamp;P1;durP1;ratioP1;P2;durP2;ratioP2
54539;SDS011;40438;52.992;18.604;2023-02-11T00:00:48;17.05;;;7.43;;
54539;SDS011;40438;52.992;18.604;2023-02-11T00:03:14;16.95;;;7.65;;
54539;SDS011;40438;52.992;18.604;2023-02-11T00:05:41;16.13;;;8.23;;
54539;SDS011;40438;52.992;18.604;2023-02-11T00:08:07;15.07;;;7.45;;
54539;SDS011;40438;52.992;18.604;2023-02-11T00:10:32;12.15;;;6.65;;
54539;SDS011;40438;52.992;18.604;2023-02-11T00:12:58;17.52;;;7.72;;
54539;SDS011;40438;52.992;18.604;2023-02-11T00:15:24;14.90;;;7.78;;
54539;SDS011;40438;52.992;18.604;2023-02-11T00:17:50;11.65;;;6.60;;
54539;SDS011;40438;52.992;18.604;2023-02-11T00:20:16;12.77;;;7.00;;
54539;SDS011;40438;52.992;18.604;2023-02-11T00:22:43;14.40;;;7.32;;
54539;SDS011;40438;52.992;18.604;2023-02-11T00:25:09;13.45;;;7.03;;
54539;SDS011;40438;52.992;18.604;2023-02-11T00:27:35;15.13;;;7.13;;
54539;SDS011;40438;52.992;18.604;2023-02-11T00:30:01;14.70;;;6.82;;
54539;SDS011;40438;52.992;18.604;2023-02-11T00:32:29;13.20;;;6.45;;
54539;SDS011;40438;52.992;18.604;2023-02-11T00:34:55;12.93;;;6.55;;
54539;SDS011;40438;52.992;18.604;2023-02-11T00:37:20;13.73;;;7.13;;
54539;SDS011;40438;52.992;18.604;2023-02-11T00:39:48;10.85;;;6.65;;
54539;SDS011;40438;52.992;18.604;2023-02-11T00:42:14;13.85;;;6.80;;
54539;SDS011;40438;52.992;18.604;2023-02-11T00:44:40;12.68;;;6.70;;
54539;SDS011;40438;52.992;18.604;2023-02-11T00:47:06;11.50;;;6.25;;
54539;SDS011;40438;52.992;18.604;2023-02-11T00:49:32;12.32;;;6.70;;
54539;SDS011;40438;52.992;18.604;2023-02-11T00:51:58;10.40;;;5.93;;
54539;SDS011;40438;52.992;18.604;2023-02-11T00:54:23;12.18;;;6.90;;
54539;SDS011;40438;52.992;18.604;2023-02-11T00:56:51;12.98;;;7.00;;
54539;SDS011;40438;52.992;18.604;2023-02-11T00:59:16;12.57;;;6.80;;
54539;SDS011;40438;52.992;18.604;2023-02-11T01:01:42;14.50;;;6.18;;
54539;SDS011;40438;52.992;18.604;2023-02-11T01:04:08;14.60;;;5.93;;
54539;SDS011;40438;52.992;18.604;2023-02-11T01:06:34;14.98;;;6.20;;
54539;SDS011;40438;52.992;18.604;2023-02-11T01:09:00;11.52;;;6.18;;
54539;SDS011;40438;52.992;18.604;2023-02-11T01:11:25;15.30;;;7.13;;
54539;SDS011;40438;52.992;18.604;2023-02-11T01:13:53;12.93;;;7.25;;
54539;SDS011;40438;52.992;18.604;2023-02-11T01:16:20;15.18;;;6.20;;
54539;SDS011;40438;52.992;18.604;2023-02-11T01:18:46;13.38;;;6.55;;
54539;SDS011;40438;52.992;18.604;2023-02-11T01:21:12;14.82;;;6.43;;
54539;SDS011;40438;52.992;18.604;2023-02-11T01:23:38;11.35;;;6.30;;
54539;SDS011;40438;52.992;18.604;2023-02-11T01:26:04;10.82;;;6.15;;
54539;SDS011;40438;52.992;18.604;2023-02-11T01:28:30;12.23;;;6.00;;
54539;SDS011;40438;52.992;18.604;2023-02-11T01:31:00;12.05;;;6.10;;
54539;SDS011;40438;52.992;18.604;2023-02-11T01:33:26;12.68;;;6.32;;
54539;SDS011;40438;52.992;18.604;2023-02-11T01:35:52;10.90;;;6.30;;
54539;SDS011;40438;52.992;18.604;2023-02-11T01:38:19;12.98;;;6.43;;
54539;SDS011;40438;52.992;18.604;2023-02-11T01:40:47;10.77;;;6.00;;
54539;SDS011;40438;52.992;18.604;2023-02-11T01:43:14;10.90;;;5.85;;
54539;SDS011;40438;52.992;18.604;2023-02-11T01:45:44;13.63;;;6.65;;
54539;SDS011;40438;52.992;18.604;2023-02-11T01:48:23;14.63;;;6.72;;
54539;SDS011;40438;52.992;18.604;2023-02-11T01:50:51;11.45;;;6.65;;
54539;SDS011;40438;52.992;18.604;2023-02-11T01:53:22;13.60;;;7.13;;
54539;SDS011;40438;52.992;18.604;2023-02-11T01:55:49;13.32;;;6.43;;
54539;SDS011;40438;52.992;18.604;2023-02-11T01:58:15;9.60;;;5.80;;
54539;SDS011;40438;52.992;18.604;2023-02-11T02:00:41;11.77;;;6.22;;
54539;SDS011;40438;52.992;18.604;2023-02-11T02:03:09;11.43;;;6.15;;
54539;SDS011;40438;52.992;18.604;2023-02-11T02:05:41;11.82;;;6.07;;
54539;SDS011;40438;52.992;18.604;2023-02-11T02:08:12;11.25;;;6.75;;
54539;SDS011;40438;52.992;18.604;2023-02-11T02:10:44;10.75;;;6.03;;
54539;SDS011;40438;52.992;18.604;2023-02-11T02:13:11;12.30;;;5.50;;
54539;SDS011;40438;52.992;18.604;2023-02-11T02:15:38;11.23;;;6.05;;
54539;SDS011;40438;52.992;18.604;2023-02-11T02:18:07;11.00;;;5.40;;
54539;SDS011;40438;52.992;18.604;2023-02-11T02:21:01;13.77;;;6.35;;
54539;SDS011;40438;52.992;18.604;2023-02-11T02:27:03;10.45;;;6.18;;
54539;SDS011;40438;52.992;18.604;2023-02-11T02:33:00;12.13;;;5.15;;
54539;SDS011;40438;52.992;18.604;2023-02-11T02:35:34;9.88;;;5.15;;
54539;SDS011;40438;52.992;18.604;2023-02-11T02:38:07;10.95;;;5.90;;
54539;SDS011;40438;52.992;18.604;2023-02-11T02:40:38;10.73;;;5.47;;
54539;SDS011;40438;52.992;18.604;2023-02-11T02:43:09;12.63;;;6.18;;
54539;SDS011;40438;52.992;18.604;2023-02-11T02:45:35;9.45;;;5.32;;
54539;SDS011;40438;52.992;18.604;2023-02-11T02:48:03;10.88;;;5.65;;
54539;SDS011;40438;52.992;18.604;2023-02-11T02:50:29;12.30;;;5.95;;
54539;SDS011;40438;52.992;18.604;2023-02-11T02:53:02;9.88;;;5.55;;
54539;SDS011;40438;52.992;18.604;2023-02-11T02:55:44;14.48;;;5.75;;
54539;SDS011;40438;52.992;18.604;2023-02-11T02:58:29;9.52;;;5.40;;
54539;SDS011;40438;52.992;18.604;2023-02-11T03:01:16;10.85;;;5.47;;
54539;SDS011;40438;52.992;18.604;2023-02-11T03:03:53;10.48;;;5.70;;
54539;SDS011;40438;52.992;18.604;2023-02-11T03:06:26;11.98;;;5.55;;
54539;SDS011;40438;52.992;18.604;2023-02-11T03:08:57;10.82;;;6.03;;
54539;SDS011;40438;52.992;18.604;2023-02-11T03:11:27;9.27;;;5.00;;
54539;SDS011;40438;52.992;18.604;2023-02-11T03:13:53;11.68;;;5.70;;
54539;SDS011;40438;52.992;18.604;2023-02-11T03:16:20;11.50;;;5.10;;
54539;SDS011;40438;52.992;18.604;2023-02-11T03:18:50;11.93;;;5.50;;
54539;SDS011;40438;52.992;18.604;2023-02-11T03:21:21;11.83;;;5.60;;
54539;SDS011;40438;52.992;18.604;2023-02-11T03:23:48;13.80;;;6.18;;
54539;SDS011;40438;52.992;18.604;2023-02-11T03:26:20;10.95;;;5.47;;
54539;SDS011;40438;52.992;18.604;2023-02-11T03:28:50;11.40;;;5.40;;
54539;SDS011;40438;52.992;18.604;2023-02-11T03:31:20;9.27;;;4.80;;
54539;SDS011;40438;52.992;18.604;2023-02-11T03:33:56;11.43;;;6.03;;
54539;SDS011;40438;52.992;18.604;2023-02-11T03:36:26;8.90;;;5.30;;
54539;SDS011;40438;52.992;18.604;2023-02-11T03:38:58;9.13;;;5.45;;
54539;SDS011;40438;52.992;18.604;2023-02-11T03:41:25;11.85;;;5.55;;
54539;SDS011;40438;52.992;18.604;2023-02-11T03:43:53;9.43;;;5.28;;
54539;SDS011;40438;52.992;18.604;2023-02-11T03:46:22;10.18;;;5.15;;
54539;SDS011;40438;52.992;18.604;2023-02-11T03:48:52;8.80;;;5.50;;
54539;SDS011;40438;52.992;18.604;2023-02-11T03:51:23;10.02;;;5.45;;
54539;SDS011;40438;52.992;18.604;2023-02-11T03:53:51;9.13;;;5.45;;
54539;SDS011;40438;52.992;18.604;2023-02-11T03:56:22;12.70;;;5.80;;
54539;SDS011;40438;52.992;18.604;2023-02-11T03:58:51;10.02;;;4.93;;
54539;SDS011;40438;52.992;18.604;2023-02-11T04:01:17;8.20;;;5.10;;
54539;SDS011;40438;52.992;18.604;2023-02-11T04:03:42;8.90;;;5.20;;
54539;SDS011;40438;52.992;18.604;2023-02-11T04:06:10;9.95;;;5.50;;
54539;SDS011;40438;52.992;18.604;2023-02-11T04:08:35;10.25;;;5.32;;
54539;SDS011;40438;52.992;18.604;2023-02-11T04:11:01;10.43;;;5.22;;
54539;SDS011;40438;52.992;18.604;2023-02-11T04:13:27;11.68;;;5.30;;
54539;SDS011;40438;52.992;18.604;2023-02-11T04:15:54;9.18;;;5.03;;
54539;SDS011;40438;52.992;18.604;2023-02-11T04:18:19;9.75;;;4.65;;
54539;SDS011;40438;52.992;18.604;2023-02-11T04:20:45;8.55;;;5.15;;
54539;SDS011;40438;52.992;18.604;2023-02-11T04:23:13;11.20;;;5.07;;
54539;SDS011;40438;52.992;18.604;2023-02-11T04:25:39;10.50;;;5.28;;
54539;SDS011;40438;52.992;18.604;2023-02-11T04:28:04;11.00;;;5.28;;
54539;SDS011;40438;52.992;18.604;2023-02-11T04:30:30;10.10;;;5.18;;
54539;SDS011;40438;52.992;18.604;2023-02-11T04:32:56;8.48;;;5.30;;
54539;SDS011;40438;52.992;18.604;2023-02-11T04:35:22;10.50;;;5.70;;
54539;SDS011;40438;52.992;18.604;2023-02-11T04:37:48;9.10;;;5.15;;
54539;SDS011;40438;52.992;18.604;2023-02-11T04:40:15;11.18;;;5.18;;
54539;SDS011;40438;52.992;18.604;2023-02-11T04:42:41;9.07;;;5.07;;
54539;SDS011;40438;52.992;18.604;2023-02-11T04:45:07;9.77;;;5.28;;
54539;SDS011;40438;52.992;18.604;2023-02-11T04:47:33;9.48;;;4.95;;
54539;SDS011;40438;52.992;18.604;2023-02-11T04:49:59;8.82;;;5.07;;
54539;SDS011;40438;52.992;18.604;2023-02-11T04:52:25;10.63;;;4.90;;
54539;SDS011;40438;52.992;18.604;2023-02-11T04:54:50;9.65;;;5.30;;
54539;SDS011;40438;52.992;18.604;2023-02-11T04:57:17;12.07;;;5.35;;
54539;SDS011;40438;52.992;18.604;2023-02-11T04:59:43;9.75;;;5.40;;
54539;SDS011;40438;52.992;18.604;2023-02-11T05:02:09;9.63;;;5.10;;
54539;SDS011;40438;52.992;18.604;2023-02-11T05:04:35;11.75;;;5.05;;
54539;SDS011;40438;52.992;18.604;2023-02-11T05:07:00;9.18;;;5.15;;
54539;SDS011;40438;52.992;18.604;2023-02-11T05:09:26;8.30;;;4.65;;
54539;SDS011;40438;52.992;18.604;2023-02-11T05:11:52;9.18;;;5.20;;
54539;SDS011;40438;52.992;18.604;2023-02-11T05:14:19;9.73;;;5.20;;
54539;SDS011;40438;52.992;18.604;2023-02-11T05:16:45;10.13;;;5.68;;
54539;SDS011;40438;52.992;18.604;2023-02-11T05:19:11;9.20;;;5.13;;
54539;SDS011;40438;52.992;18.604;2023-02-11T05:21:36;8.07;;;4.72;;
54539;SDS011;40438;52.992;18.604;2023-02-11T05:24:02;9.40;;;5.43;;
54539;SDS011;40438;52.992;18.604;2023-02-11T05:26:29;7.68;;;4.90;;
54539;SDS011;40438;52.992;18.604;2023-02-11T05:28:54;9.50;;;5.75;;
54539;SDS011;40438;52.992;18.604;2023-02-11T05:31:22;11.65;;;6.90;;
54539;SDS011;40438;52.992;18.604;2023-02-11T05:33:47;11.93;;;5.63;;
54539;SDS011;40438;52.992;18.604;2023-02-11T05:36:13;12.50;;;6.70;;
54539;SDS011;40438;52.992;18.604;2023-02-11T05:38:39;12.98;;;5.80;;
54539;SDS011;40438;52.992;18.604;2023-02-11T05:41:05;10.90;;;5.45;;
54539;SDS011;40438;52.992;18.604;2023-02-11T05:43:31;12.95;;;6.55;;
54539;SDS011;40438;52.992;18.604;2023-02-11T05:45:57;20.17;;;6.55;;
54539;SDS011;40438;52.992;18.604;2023-02-11T05:48:24;13.63;;;6.55;;
54539;SDS011;40438;52.992;18.604;2023-02-11T05:50:50;10.43;;;6.50;;
54539;SDS011;40438;52.992;18.604;2023-02-11T05:53:15;14.13;;;6.57;;
54539;SDS011;40438;52.992;18.604;2023-02-11T05:55:41;11.15;;;5.82;;
54539;SDS011;40438;52.992;18.604;2023-02-11T05:58:07;11.10;;;6.03;;
54539;SDS011;40438;52.992;18.604;2023-02-11T06:00:33;9.00;;;5.40;;
54539;SDS011;40438;52.992;18.604;2023-02-11T06:02:59;10.95;;;6.07;;
54539;SDS011;40438;52.992;18.604;2023-02-11T06:05:26;9.68;;;4.93;;
54539;SDS011;40438;52.992;18.604;2023-02-11T06:07:52;8.65;;;4.63;;
54539;SDS011;40438;52.992;18.604;2023-02-11T06:10:18;8.65;;;4.38;;
54539;SDS011;40438;52.992;18.604;2023-02-11T06:12:43;10.80;;;4.45;;
54539;SDS011;40438;52.992;18.604;2023-02-11T06:15:09;9.75;;;4.45;;
54539;SDS011;40438;52.992;18.604;2023-02-11T06:17:35;9.93;;;4.63;;
54539;SDS011;40438;52.992;18.604;2023-02-11T06:20:01;7.47;;;4.32;;
54539;SDS011;40438;52.992;18.604;2023-02-11T06:22:30;11.50;;;4.82;;
54539;SDS011;40438;52.992;18.604;2023-02-11T06:24:56;8.75;;;5.05;;
54539;SDS011;40438;52.992;18.604;2023-02-11T06:27:21;7.45;;;4.38;;
54539;SDS011;40438;52.992;18.604;2023-02-11T06:29:47;8.15;;;4.57;;
54539;SDS011;40438;52.992;18.604;2023-02-11T06:32:13;8.77;;;4.72;;
54539;SDS011;40438;52.992;18.604;2023-02-11T06:34:39;8.55;;;4.38;;
54539;SDS011;40438;52.992;18.604;2023-02-11T06:37:05;9.75;;;4.95;;
54539;SDS011;40438;52.992;18.604;2023-02-11T06:39:32;9.40;;;5.38;;
54539;SDS011;40438;52.992;18.604;2023-02-11T06:41:58;7.05;;;4.50;;
54539;SDS011;40438;52.992;18.604;2023-02-11T06:44:24;9.25;;;5.00;;
54539;SDS011;40438;52.992;18.604;2023-02-11T06:46:50;8.52;;;5.18;;
54539;SDS011;40438;52.992;18.604;2023-02-11T06:49:15;7.53;;;4.28;;
54539;SDS011;40438;52.992;18.604;2023-02-11T06:51:41;9.95;;;4.45;;
54539;SDS011;40438;52.992;18.604;2023-02-11T06:54:07;7.75;;;4.40;;
54539;SDS011;40438;52.992;18.604;2023-02-11T06:56:34;9.48;;;5.35;;
54539;SDS011;40438;52.992;18.604;2023-02-11T06:59:00;6.53;;;4.35;;
54539;SDS011;40438;52.992;18.604;2023-02-11T07:01:26;9.48;;;4.93;;
54539;SDS011;40438;52.992;18.604;2023-02-11T07:03:52;9.38;;;5.05;;
54539;SDS011;40438;52.992;18.604;2023-02-11T07:06:19;8.63;;;4.28;;
54539;SDS011;40438;52.992;18.604;2023-02-11T07:08:46;8.65;;;4.50;;
54539;SDS011;40438;52.992;18.604;2023-02-11T07:11:13;8.73;;;4.75;;
54539;SDS011;40438;52.992;18.604;2023-02-11T07:13:42;7.03;;;4.05;;
54539;SDS011;40438;52.992;18.604;2023-02-11T07:16:09;7.85;;;4.63;;
54539;SDS011;40438;52.992;18.604;2023-02-11T07:18:35;9.18;;;3.90;;
54539;SDS011;40438;52.992;18.604;2023-02-11T07:21:03;7.03;;;3.80;;
54539;SDS011;40438;52.992;18.604;2023-02-11T07:23:29;7.63;;;4.30;;
54539;SDS011;40438;52.992;18.604;2023-02-11T07:25:54;6.93;;;4.18;;
54539;SDS011;40438;52.992;18.604;2023-02-11T07:28:20;7.43;;;4.47;;
54539;SDS011;40438;52.992;18.604;2023-02-11T07:30:47;8.23;;;4.43;;
54539;SDS011;40438;52.992;18.604;2023-02-11T07:33:13;7.97;;;4.65;;
54539;SDS011;40438;52.992;18.604;2023-02-11T07:35:39;8.77;;;4.00;;
54539;SDS011;40438;52.992;18.604;2023-02-11T07:38:05;6.00;;;3.60;;
54539;SDS011;40438;52.992;18.604;2023-02-11T07:40:30;7.47;;;4.82;;
54539;SDS011;40438;52.992;18.604;2023-02-11T07:42:56;9.20;;;4.13;;
54539;SDS011;40438;52.992;18.604;2023-02-11T07:45:22;6.53;;;4.05;;
54539;SDS011;40438;52.992;18.604;2023-02-11T07:47:49;7.60;;;4.22;;
54539;SDS011;40438;52.992;18.604;2023-02-11T07:50:15;6.05;;;4.10;;
54539;SDS011;40438;52.992;18.604;2023-02-11T07:52:41;6.93;;;4.07;;
54539;SDS011;40438;52.992;18.604;2023-02-11T07:55:07;10.32;;;4.15;;
54539;SDS011;40438;52.992;18.604;2023-02-11T07:57:33;8.73;;;4.38;;
54539;SDS011;40438;52.992;18.604;2023-02-11T07:59:58;7.55;;;4.25;;
54539;SDS011;40438;52.992;18.604;2023-02-11T08:02:24;6.07;;;4.38;;
54539;SDS011;40438;52.992;18.604;2023-02-11T08:04:51;7.38;;;4.20;;
54539;SDS011;40438;52.992;18.604;2023-02-11T08:07:17;7.60;;;4.10;;
54539;SDS011;40438;52.992;18.604;2023-02-11T08:09:43;24.75;;;4.40;;
54539;SDS011;40438;52.992;18.604;2023-02-11T08:12:09;8.65;;;4.20;;
54539;SDS011;40438;52.992;18.604;2023-02-11T08:14:35;6.22;;;3.85;;
54539;SDS011;40438;52.992;18.604;2023-02-11T08:17:01;11.52;;;4.15;;
54539;SDS011;40438;52.992;18.604;2023-02-11T08:19:27;9.95;;;4.40;;
54539;SDS011;40438;52.992;18.604;2023-02-11T08:21:55;8.85;;;4.30;;
54539;SDS011;40438;52.992;18.604;2023-02-11T08:24:21;9.07;;;4.57;;
54539;SDS011;40438;52.992;18.604;2023-02-11T08:26:47;5.75;;;3.50;;
54539;SDS011;40438;52.992;18.604;2023-02-11T08:29:13;9.00;;;4.03;;
54539;SDS011;40438;52.992;18.604;2023-02-11T08:31:41;8.73;;;4.13;;
54539;SDS011;40438;52.992;18.604;2023-02-11T08:34:08;10.18;;;4.38;;
54539;SDS011;40438;52.992;18.604;2023-02-11T08:36:34;11.30;;;4.50;;
54539;SDS011;40438;52.992;18.604;2023-02-11T08:39:03;7.50;;;4.00;;
54539;SDS011;40438;52.992;18.604;2023-02-11T08:41:31;7.65;;;3.78;;
54539;SDS011;40438;52.992;18.604;2023-02-11T08:43:58;13.73;;;4.25;;
54539;SDS011;40438;52.992;18.604;2023-02-11T08:46:23;11.70;;;4.20;;
54539;SDS011;40438;52.992;18.604;2023-02-11T08:48:49;13.68;;;4.80;;
54539;SDS011;40438;52.992;18.604;2023-02-11T08:51:16;14.27;;;4.18;;
54539;SDS011;40438;52.992;18.604;2023-02-11T08:53:43;8.75;;;4.75;;
54539;SDS011;40438;52.992;18.604;2023-02-11T08:56:11;6.63;;;4.10;;
54539;SDS011;40438;52.992;18.604;2023-02-11T08:58:39;9.32;;;4.00;;
54539;SDS011;40438;52.992;18.604;2023-02-11T09:01:08;9.75;;;4.30;;
54539;SDS011;40438;52.992;18.604;2023-02-11T09:03:34;9.75;;;4.80;;
54539;SDS011;40438;52.992;18.604;2023-02-11T09:06:03;12.27;;;4.75;;
54539;SDS011;40438;52.992;18.604;2023-02-11T09:08:29;18.83;;;4.35;;
54539;SDS011;40438;52.992;18.604;2023-02-11T09:10:55;10.50;;;4.97;;
54539;SDS011;40438;52.992;18.604;2023-02-11T09:13:22;9.18;;;4.32;;
54539;SDS011;40438;52.992;18.604;2023-02-11T09:15:48;10.77;;;4.50;;
54539;SDS011;40438;52.992;18.604;2023-02-11T09:18:13;11.13;;;4.25;;
54539;SDS011;40438;52.992;18.604;2023-02-11T09:20:39;17.08;;;4.93;;
54539;SDS011;40438;52.992;18.604;2023-02-11T09:23:05;23.02;;;5.68;;
54539;SDS011;40438;52.992;18.604;2023-02-11T09:25:31;22.35;;;5.18;;
54539;SDS011;40438;52.992;18.604;2023-02-11T09:27:57;13.93;;;4.65;;
54539;SDS011;40438;52.992;18.604;2023-02-11T09:30:24;15.10;;;5.22;;
54539;SDS011;40438;52.992;18.604;2023-02-11T09:32:49;15.48;;;4.88;;
54539;SDS011;40438;52.992;18.604;2023-02-11T09:35:15;8.57;;;4.65;;
54539;SDS011;40438;52.992;18.604;2023-02-11T09:37:41;11.45;;;5.32;;
54539;SDS011;40438;52.992;18.604;2023-02-11T09:40:07;11.75;;;5.20;;
54539;SDS011;40438;52.992;18.604;2023-02-11T09:42:39;10.57;;;5.10;;
54539;SDS011;40438;52.992;18.604;2023-02-11T09:45:12;9.57;;;5.30;;
54539;SDS011;40438;52.992;18.604;2023-02-11T09:47:46;8.77;;;5.00;;
54539;SDS011;40438;52.992;18.604;2023-02-11T09:50:17;12.93;;;5.78;;
54539;SDS011;40438;52.992;18.604;2023-02-11T09:52:48;9.63;;;4.90;;
54539;SDS011;40438;52.992;18.604;2023-02-11T09:55:19;14.15;;;5.85;;
54539;SDS011;40438;52.992;18.604;2023-02-11T09:57:47;16.80;;;5.75;;
54539;SDS011;40438;52.992;18.604;2023-02-11T10:00:20;15.45;;;5.43;;
54539;SDS011;40438;52.992;18.604;2023-02-11T10:03:02;18.60;;;5.97;;
54539;SDS011;40438;52.992;18.604;2023-02-11T10:05:47;14.07;;;5.28;;
54539;SDS011;40438;52.992;18.604;2023-02-11T10:08:27;15.38;;;6.57;;
54539;SDS011;40438;52.992;18.604;2023-02-11T10:11:01;16.58;;;5.95;;
54539;SDS011;40438;52.992;18.604;2023-02-11T10:13:37;11.43;;;5.63;;
54539;SDS011;40438;52.992;18.604;2023-02-11T10:16:15;15.15;;;5.90;;
54539;SDS011;40438;52.992;18.604;2023-02-11T10:18:55;13.07;;;5.50;;
54539;SDS011;40438;52.992;18.604;2023-02-11T10:21:50;18.25;;;7.20;;
54539;SDS011;40438;52.992;18.604;2023-02-11T10:24:22;15.27;;;6.10;;
54539;SDS011;40438;52.992;18.604;2023-02-11T10:26:49;11.23;;;5.55;;
54539;SDS011;40438;52.992;18.604;2023-02-11T10:29:23;12.32;;;5.53;;
54539;SDS011;40438;52.992;18.604;2023-02-11T10:31:58;11.57;;;5.38;;
54539;SDS011;40438;52.992;18.604;2023-02-11T10:34:27;17.40;;;5.55;;
54539;SDS011;40438;52.992;18.604;2023-02-11T10:36:53;10.00;;;4.85;;
54539;SDS011;40438;52.992;18.604;2023-02-11T10:39:19;11.77;;;5.28;;
54539;SDS011;40438;52.992;18.604;2023-02-11T10:41:47;9.35;;;5.40;;
54539;SDS011;40438;52.992;18.604;2023-02-11T10:44:19;10.13;;;4.75;;
54539;SDS011;40438;52.992;18.604;2023-02-11T10:46:49;15.10;;;5.88;;
54539;SDS011;40438;52.992;18.604;2023-02-11T10:49:31;12.00;;;4.88;;
54539;SDS011;40438;52.992;18.604;2023-02-11T10:52:16;13.98;;;5.40;;
54539;SDS011;40438;52.992;18.604;2023-02-11T10:54:54;9.95;;;5.07;;
54539;SDS011;40438;52.992;18.604;2023-02-11T10:57:25;9.20;;;4.70;;
54539;SDS011;40438;52.992;18.604;2023-02-11T10:59:56;13.95;;;5.50;;
54539;SDS011;40438;52.992;18.604;2023-02-11T11:02:25;12.80;;;5.38;;
54539;SDS011;40438;52.992;18.604;2023-02-11T11:04:56;12.57;;;4.75;;
54539;SDS011;40438;52.992;18.604;2023-02-11T11:07:24;11.93;;;4.65;;
54539;SDS011;40438;52.992;18.604;2023-02-11T11:09:51;16.25;;;4.80;;
54539;SDS011;40438;52.992;18.604;2023-02-11T11:12:23;11.75;;;5.68;;
54539;SDS011;40438;52.992;18.604;2023-02-11T11:14:54;10.60;;;5.28;;
54539;SDS011;40438;52.992;18.604;2023-02-11T11:17:20;11.60;;;4.50;;
54539;SDS011;40438;52.992;18.604;2023-02-11T11:19:46;14.73;;;4.72;;
54539;SDS011;40438;52.992;18.604;2023-02-11T11:22:19;8.80;;;4.90;;
54539;SDS011;40438;52.992;18.604;2023-02-11T11:24:46;9.63;;;5.13;;
54539;SDS011;40438;52.992;18.604;2023-02-11T11:27:16;10.80;;;4.78;;
54539;SDS011;40438;52.992;18.604;2023-02-11T11:29:45;14.02;;;4.85;;
54539;SDS011;40438;52.992;18.604;2023-02-11T11:32:14;14.32;;;4.80;;
54539;SDS011;40438;52.992;18.604;2023-02-11T11:34:47;11.23;;;4.55;;
54539;SDS011;40438;52.992;18.604;2023-02-11T11:37:19;10.88;;;4.68;;
54539;SDS011;40438;52.992;18.604;2023-02-11T11:39:51;12.98;;;4.93;;
54539;SDS011;40438;52.992;18.604;2023-02-11T11:42:23;14.88;;;5.13;;
54539;SDS011;40438;52.992;18.604;2023-02-11T11:44:55;10.00;;;4.65;;
54539;SDS011;40438;52.992;18.604;2023-02-11T11:47:26;9.60;;;4.68;;
54539;SDS011;40438;52.992;18.604;2023-02-11T11:50:04;12.32;;;4.30;;
54539;SDS011;40438;52.992;18.604;2023-02-11T11:52:40;14.25;;;4.70;;
54539;SDS011;40438;52.992;18.604;2023-02-11T11:55:11;12.40;;;4.22;;
54539;SDS011;40438;52.992;18.604;2023-02-11T11:57:41;10.40;;;5.10;;
54539;SDS011;40438;52.992;18.604;2023-02-11T12:00:13;10.15;;;5.35;;
54539;SDS011;40438;52.992;18.604;2023-02-11T12:02:55;13.73;;;4.82;;
54539;SDS011;40438;52.992;18.604;2023-02-11T12:05:45;8.27;;;4.22;;
54539;SDS011;40438;52.992;18.604;2023-02-11T12:08:22;11.70;;;4.47;;
54539;SDS011;40438;52.992;18.604;2023-02-11T12:10:57;12.07;;;5.38;;
54539;SDS011;40438;52.992;18.604;2023-02-11T12:13:43;8.73;;;4.70;;
54539;SDS011;40438;52.992;18.604;2023-02-11T12:16:19;8.75;;;4.20;;
54539;SDS011;40438;52.992;18.604;2023-02-11T12:21:53;10.05;;;4.57;;
54539;SDS011;40438;52.992;18.604;2023-02-11T12:24:28;9.23;;;4.47;;
54539;SDS011;40438;52.992;18.604;2023-02-11T12:27:03;15.63;;;4.18;;
54539;SDS011;40438;52.992;18.604;2023-02-11T12:29:36;14.35;;;4.25;;
54539;SDS011;40438;52.992;18.604;2023-02-11T12:32:13;11.32;;;4.25;;
54539;SDS011;40438;52.992;18.604;2023-02-11T12:34:59;11.48;;;4.57;;
54539;SDS011;40438;52.992;18.604;2023-02-11T12:37:40;10.32;;;4.50;;
54539;SDS011;40438;52.992;18.604;2023-02-11T12:40:21;10.55;;;4.88;;
54539;SDS011;40438;52.992;18.604;2023-02-11T12:43:01;8.88;;;4.20;;
54539;SDS011;40438;52.992;18.604;2023-02-11T12:48:49;12.77;;;4.15;;
54539;SDS011;40438;52.992;18.604;2023-02-11T12:51:34;7.75;;;3.65;;
54539;SDS011;40438;52.992;18.604;2023-02-11T12:54:16;12.63;;;3.70;;
54539;SDS011;40438;52.992;18.604;2023-02-11T12:56:47;9.18;;;3.80;;
54539;SDS011;40438;52.992;18.604;2023-02-11T12:59:19;10.95;;;4.35;;
54539;SDS011;40438;52.992;18.604;2023-02-11T13:01:57;6.47;;;3.97;;
54539;SDS011;40438;52.992;18.604;2023-02-11T13:04:25;10.80;;;4.00;;
54539;SDS011;40438;52.992;18.604;2023-02-11T13:06:56;9.45;;;3.90;;
54539;SDS011;40438;52.992;18.604;2023-02-11T13:09:28;6.00;;;3.63;;
54539;SDS011;40438;52.992;18.604;2023-02-11T13:12:01;7.85;;;4.18;;
54539;SDS011;40438;52.992;18.604;2023-02-11T13:14:29;7.10;;;3.75;;
54539;SDS011;40438;52.992;18.604;2023-02-11T13:16:58;8.40;;;4.03;;
54539;SDS011;40438;52.992;18.604;2023-02-11T13:19:25;7.15;;;4.70;;
54539;SDS011;40438;52.992;18.604;2023-02-11T13:21:58;22.17;;;9.48;;
54539;SDS011;40438;52.992;18.604;2023-02-11T13:24:31;22.17;;;10.95;;
54539;SDS011;40438;52.992;18.604;2023-02-11T13:27:08;24.63;;;16.92;;
54539;SDS011;40438;52.992;18.604;2023-02-11T13:29:51;35.15;;;26.13;;
54539;SDS011;40438;52.992;18.604;2023-02-11T13:32:27;77.10;;;54.50;;
54539;SDS011;40438;52.992;18.604;2023-02-11T13:35:30;114.43;;;79.20;;
54539;SDS011;40438;52.992;18.604;2023-02-11T13:37:57;138.75;;;95.18;;
54539;SDS011;40438;52.992;18.604;2023-02-11T13:40:24;159.32;;;106.28;;
54539;SDS011;40438;52.992;18.604;2023-02-11T13:42:53;162.52;;;109.38;;
54539;SDS011;40438;52.992;18.604;2023-02-11T13:45:26;159.95;;;109.07;;
54539;SDS011;40438;52.992;18.604;2023-02-11T13:47:56;162.80;;;109.55;;
54539;SDS011;40438;52.992;18.604;2023-02-11T13:50:23;169.07;;;112.43;;
54539;SDS011;40438;52.992;18.604;2023-02-11T13:52:55;161.32;;;109.10;;
54539;SDS011;40438;52.992;18.604;2023-02-11T13:55:22;152.23;;;109.20;;
54539;SDS011;40438;52.992;18.604;2023-02-11T14:00:57;162.18;;;107.95;;
54539;SDS011;40438;52.992;18.604;2023-02-11T14:03:25;156.50;;;108.63;;
54539;SDS011;40438;52.992;18.604;2023-02-11T14:06:14;155.70;;;106.53;;
54539;SDS011;40438;52.992;18.604;2023-02-11T14:08:57;146.15;;;104.63;;
54539;SDS011;40438;52.992;18.604;2023-02-11T14:14:21;153.25;;;102.50;;
54539;SDS011;40438;52.992;18.604;2023-02-11T14:19:53;149.90;;;99.20;;
54539;SDS011;40438;52.992;18.604;2023-02-11T14:22:21;146.02;;;97.15;;
54539;SDS011;40438;52.992;18.604;2023-02-11T14:24:51;142.13;;;97.15;;
54539;SDS011;40438;52.992;18.604;2023-02-11T14:27:24;143.32;;;96.38;;
54539;SDS011;40438;52.992;18.604;2023-02-11T14:33:12;143.15;;;93.78;;
54539;SDS011;40438;52.992;18.604;2023-02-11T14:36:00;148.25;;;95.90;;
54539;SDS011;40438;52.992;18.604;2023-02-11T14:38:34;149.80;;;95.88;;
54539;SDS011;40438;52.992;18.604;2023-02-11T14:41:09;145.63;;;97.05;;
54539;SDS011;40438;52.992;18.604;2023-02-11T14:43:41;141.38;;;94.97;;
54539;SDS011;40438;52.992;18.604;2023-02-11T14:46:10;143.63;;;94.57;;
54539;SDS011;40438;52.992;18.604;2023-02-11T14:48:38;134.50;;;91.10;;
54539;SDS011;40438;52.992;18.604;2023-02-11T14:51:10;141.80;;;93.90;;
54539;SDS011;40438;52.992;18.604;2023-02-11T14:53:41;139.48;;;91.40;;
54539;SDS011;40438;52.992;18.604;2023-02-11T14:56:15;138.35;;;90.30;;
54539;SDS011;40438;52.992;18.604;2023-02-11T14:58:44;134.55;;;87.03;;
54539;SDS011;40438;52.992;18.604;2023-02-11T15:01:21;129.68;;;85.72;;